Time;durP1;ratioP1;P1;durP2;ratioP2;P2;SDS_P1;SDS_P2;PMS_P1;PMS_P2;Temp;Humidity;BMP_temperature;BMP_pressure;BME280_temperature;BME280_humidity;BME280_pressure;Samples;Min_cycle;Max_cycle;Signal;HPM_P1;HPM_P2
2023/03/14 00:00:16;;;;;;;4.43;1.63;;;11.80;99.90;;;;;;4996996;28;20489;-75
2023/03/14 00:02:42;;;;;;;5.43;1.10;;;11.80;99.90;;;;;;4997196;28;20021;-73
2023/03/14 00:05:09;;;;;;;7.28;1.10;;;11.80;99.90;;;;;;4997657;28;20708;-74
2023/03/14 00:07:37;;;;;;;6.47;1.67;;;11.80;99.90;;;;;;4997198;28;20045;-75
2023/03/14 00:10:09;;;;;;;6.38;0.90;;;11.80;99.90;;;;;;4990776;28;20285;-77
2023/03/14 00:12:35;;;;;;;8.95;1.40;;;11.70;99.90;;;;;;5000874;28;20037;-76
2023/03/14 00:15:03;;;;;;;10.05;1.40;;;11.80;99.90;;;;;;5016982;28;20049;-77
2023/03/14 00:17:31;;;;;;;5.50;1.10;;;11.80;99.90;;;;;;4994976;28;20048;-77
2023/03/14 00:19:57;;;;;;;7.00;1.33;;;11.80;99.90;;;;;;4986432;28;20033;-75
2023/03/14 00:22:24;;;;;;;7.93;1.23;;;11.80;99.90;;;;;;4994152;28;20496;-75
2023/03/14 00:24:50;;;;;;;6.70;1.33;;;11.80;99.90;;;;;;4996897;28;20049;-73
2023/03/14 00:27:16;;;;;;;7.82;1.20;;;11.80;99.90;;;;;;5001054;28;20037;-74
2023/03/14 00:29:44;;;;;;;7.00;1.58;;;11.70;99.90;;;;;;4986827;28;20049;-80
2023/03/14 00:32:10;;;;;;;9.05;1.25;;;11.60;99.90;;;;;;4999543;28;20072;-84
2023/03/14 00:34:40;;;;;;;9.80;1.98;;;11.40;99.90;;;;;;4979175;28;20578;-86
2023/03/14 00:37:06;;;;;;;7.25;1.17;;;11.20;99.90;;;;;;4996640;28;20052;-79
2023/03/14 00:39:32;;;;;;;7.22;0.98;;;11.10;99.90;;;;;;4974382;28;20037;-78
2023/03/14 00:41:59;;;;;;;4.82;0.70;;;11.00;99.90;;;;;;5010091;28;20499;-78
2023/03/14 00:44:25;;;;;;;6.20;1.13;;;10.90;99.90;;;;;;4981257;28;20036;-80
2023/03/14 00:46:51;;;;;;;6.45;0.90;;;10.80;99.90;;;;;;4996667;28;20484;-79
2023/03/14 00:49:18;;;;;;;5.03;0.70;;;10.70;99.90;;;;;;5007052;28;20053;-79
2023/03/14 00:51:44;;;;;;;6.15;0.68;;;10.70;99.90;;;;;;4983390;28;20037;-80
2023/03/14 00:54:11;;;;;;;6.95;0.90;;;10.70;99.90;;;;;;5003799;28;20826;-78
2023/03/14 00:56:37;;;;;;;3.85;0.60;;;10.60;99.90;;;;;;5019291;28;20033;-78
2023/03/14 00:59:04;;;;;;;5.63;0.68;;;10.60;99.90;;;;;;5007274;28;20620;-79
2023/03/14 01:01:30;;;;;;;4.75;0.68;;;10.60;99.90;;;;;;5016555;28;20040;-79
2023/03/14 01:03:56;;;;;;;3.50;0.50;;;10.50;99.90;;;;;;4998077;28;20130;-78
2023/03/14 01:06:26;;;;;;;7.22;1.02;;;10.50;99.90;;;;;;4983415;28;20042;-79
2023/03/14 01:08:53;;;;;;;4.55;0.60;;;10.40;99.90;;;;;;4995317;28;20044;-79
2023/03/14 01:11:24;;;;;;;6.75;0.70;;;10.40;99.90;;;;;;5000906;28;20036;-78
2023/03/14 01:13:51;;;;;;;4.50;0.77;;;10.40;99.90;;;;;;4979131;28;20033;-80
2023/03/14 01:16:18;;;;;;;5.88;0.73;;;10.40;99.90;;;;;;4981895;28;20037;-80
2023/03/14 01:18:45;;;;;;;4.80;0.77;;;10.40;99.90;;;;;;4975026;28;20037;-79
2023/03/14 01:21:28;;;;;;;5.97;0.88;;;10.40;99.90;;;;;;4971822;28;20032;-79
2023/03/14 01:23:56;;;;;;;6.53;0.60;;;10.40;99.90;;;;;;5003798;28;20044;-79
2023/03/14 01:26:24;;;;;;;4.63;0.80;;;10.50;99.90;;;;;;4967055;28;20031;-78
2023/03/14 01:28:53;;;;;;;3.50;0.70;;;10.50;99.90;;;;;;4971553;28;20044;-78
2023/03/14 01:31:19;;;;;;;5.03;0.75;;;10.50;99.90;;;;;;4995771;28;20044;-79
2023/03/14 01:33:46;;;;;;;7.40;0.80;;;10.50;99.90;;;;;;4998225;28;20037;-78
2023/03/14 01:36:13;;;;;;;8.70;1.23;;;10.50;99.90;;;;;;4966108;28;20036;-79
2023/03/14 01:38:40;;;;;;;10.65;0.90;;;10.50;99.90;;;;;;4995598;28;20400;-79
2023/03/14 01:41:15;;;;;;;5.22;1.10;;;10.50;99.90;;;;;;4986599;28;20091;-79
2023/03/14 01:43:43;;;;;;;6.93;1.00;;;10.60;99.90;;;;;;4997863;28;20045;-77
2023/03/14 01:46:30;;;;;;;6.50;0.95;;;10.60;99.90;;;;;;4980601;28;20044;-79
2023/03/14 01:49:20;;;;;;;5.80;0.60;;;10.50;99.90;;;;;;4972936;28;20313;-77
2023/03/14 01:51:54;;;;;;;7.65;1.10;;;10.50;99.90;;;;;;4998180;28;20578;-77
2023/03/14 01:54:32;;;;;;;7.65;1.15;;;10.50;99.90;;;;;;5014771;28;20037;-78
2023/03/14 01:57:27;;;;;;;5.00;0.93;;;10.40;99.90;;;;;;4994306;28;20045;-78
2023/03/14 02:00:18;;;;;;;7.35;1.02;;;10.40;99.90;;;;;;4969649;28;20492;-79
2023/03/14 02:02:50;;;;;;;6.63;1.10;;;10.30;99.90;;;;;;4962940;28;20041;-78
2023/03/14 02:05:21;;;;;;;;;;;10.20;99.90;;;;;;4982064;28;20424;-79
2023/03/14 02:07:56;;;;;;;10.07;1.52;;;10.10;99.90;;;;;;4977182;28;20311;-79
2023/03/14 02:10:32;;;;;;;7.75;0.93;;;10.00;99.90;;;;;;4973581;28;20037;-80
2023/03/14 02:13:03;;;;;;;5.32;0.80;;;9.90;99.90;;;;;;4982885;28;20033;-82
2023/03/14 02:15:46;;;;;;;6.07;0.73;;;9.80;99.90;;;;;;5002313;28;20045;-81
2023/03/14 02:18:33;;;;;;;9.57;1.23;;;9.80;99.90;;;;;;4990854;28;20051;-82
2023/03/14 02:21:37;;;;;;;9.07;1.20;;;9.80;99.90;;;;;;4965094;28;20044;-82
2023/03/14 02:24:14;;;;;;;10.95;1.52;;;9.70;99.90;;;;;;4982109;28;20050;-81
2023/03/14 02:27:08;;;;;;;11.50;1.08;;;9.60;99.90;;;;;;4997596;28;20076;-79
2023/03/14 02:29:46;;;;;;;12.25;1.98;;;9.60;99.90;;;;;;4990251;28;20488;-79
2023/03/14 02:32:14;;;;;;;7.22;1.10;;;9.50;99.90;;;;;;4995533;28;20080;-80
2023/03/14 02:34:43;;;;;;;6.47;1.60;;;9.50;99.90;;;;;;4975703;28;20377;-80
2023/03/14 02:37:10;;;;;;;6.32;1.17;;;9.50;99.90;;;;;;4998329;28;20041;-81
2023/03/14 02:39:41;;;;;;;11.68;1.58;;;9.40;99.90;;;;;;5007409;28;20055;-82
2023/03/14 02:42:08;;;;;;;6.82;1.23;;;9.50;99.90;;;;;;4964795;28;1084945;-80
2023/03/14 02:44:35;;;;;;;7.47;0.70;;;9.40;99.90;;;;;;4984624;28;20067;-79
2023/03/14 02:47:03;;;;;;;7.32;0.88;;;9.40;99.90;;;;;;4982528;28;20048;-81
2023/03/14 02:49:34;;;;;;;9.40;0.75;;;9.40;99.90;;;;;;4993530;28;20410;-80
2023/03/14 02:52:00;;;;;;;9.15;1.20;;;9.40;99.90;;;;;;5003144;28;20044;-79
2023/03/14 02:54:26;;;;;;;5.10;0.57;;;9.40;99.90;;;;;;4985037;28;20020;-80
2023/03/14 02:56:53;;;;;;;3.42;0.70;;;9.40;99.90;;;;;;5003867;28;20504;-81
2023/03/14 02:59:20;;;;;;;6.60;0.70;;;9.40;99.90;;;;;;4993107;28;20448;-80
2023/03/14 03:01:52;;;;;;;6.70;0.50;;;9.40;99.90;;;;;;4983023;28;20025;-80
2023/03/14 03:04:19;;;;;;;5.97;0.50;;;9.40;99.90;;;;;;4984593;28;20045;-81
2023/03/14 03:06:46;;;;;;;5.53;0.70;;;9.40;99.90;;;;;;4984662;28;20790;-79
2023/03/14 03:09:13;;;;;;;3.60;0.70;;;9.40;99.90;;;;;;4981230;28;20047;-79
2023/03/14 03:11:39;;;;;;;7.35;0.80;;;9.40;99.90;;;;;;5022295;28;20045;-81
2023/03/14 03:14:06;;;;;;;8.80;0.77;;;9.40;99.90;;;;;;5002063;28;20052;-78
2023/03/14 03:16:33;;;;;;;7.82;0.93;;;9.40;99.90;;;;;;4983582;28;20335;-79
2023/03/14 03:19:00;;;;;;;4.05;0.80;;;9.40;99.90;;;;;;4992287;28;20423;-78
2023/03/14 03:21:26;;;;;;;10.60;1.17;;;9.40;99.90;;;;;;4988981;28;20056;-79
2023/03/14 03:23:52;;;;;;;9.52;1.00;;;9.30;99.90;;;;;;4987281;28;20245;-81
2023/03/14 03:26:19;;;;;;;10.63;1.08;;;9.30;99.90;;;;;;5007666;28;20037;-79
2023/03/14 03:28:45;;;;;;;6.93;0.90;;;9.30;99.90;;;;;;4979312;28;20040;-80
2023/03/14 03:31:13;;;;;;;8.63;1.00;;;9.20;99.90;;;;;;5001024;28;20037;-80
2023/03/14 03:33:40;;;;;;;7.97;1.15;;;9.20;99.90;;;;;;4984713;28;20040;-78
2023/03/14 03:36:08;;;;;;;7.40;1.05;;;9.20;99.90;;;;;;5004027;28;20049;-79
2023/03/14 03:38:36;;;;;;;8.00;1.20;;;9.20;99.90;;;;;;4980847;28;20079;-80
2023/03/14 03:41:06;;;;;;;6.53;1.00;;;9.20;99.90;;;;;;4999593;28;20045;-79
2023/03/14 03:43:32;;;;;;;11.05;1.10;;;9.20;99.90;;;;;;5000065;28;20041;-81
2023/03/14 03:46:05;;;;;;;8.88;1.17;;;9.20;99.90;;;;;;4966911;28;20045;-80
2023/03/14 03:48:32;;;;;;;7.93;1.00;;;9.20;99.90;;;;;;4992767;28;20064;-79
2023/03/14 03:51:01;;;;;;;10.23;1.25;;;9.20;99.90;;;;;;5003474;28;20049;-81
2023/03/14 03:53:27;;;;;;;7.57;1.27;;;9.20;99.90;;;;;;5003614;28;20484;-79
2023/03/14 03:55:53;;;;;;;8.73;1.50;;;9.30;99.90;;;;;;4999877;28;20037;-80
2023/03/14 03:58:19;;;;;;;9.02;1.70;;;9.20;99.90;;;;;;4976674;28;20049;-82
2023/03/14 04:00:46;;;;;;;16.00;1.75;;;9.20;99.90;;;;;;4981538;28;20056;-81
2023/03/14 04:03:12;;;;;;;7.00;1.10;;;9.20;99.90;;;;;;4964219;28;20049;-81
2023/03/14 04:05:38;;;;;;;8.57;1.92;;;9.20;99.90;;;;;;4988225;28;20043;-80
2023/03/14 04:08:09;;;;;;;14.40;1.35;;;9.20;99.90;;;;;;4968577;28;20352;-81
2023/03/14 04:10:36;;;;;;;8.43;1.10;;;9.30;99.90;;;;;;4976542;28;20052;-80
2023/03/14 04:13:17;;;;;;;14.10;2.42;;;9.30;99.90;;;;;;4986732;28;20021;-81
2023/03/14 04:15:48;;;;;;;14.13;1.63;;;9.30;99.90;;;;;;4998159;28;20080;-80
2023/03/14 04:18:20;;;;;;;14.55;2.85;;;9.30;99.90;;;;;;4982309;28;20903;-80
2023/03/14 04:20:57;;;;;;;9.10;2.25;;;9.30;99.90;;;;;;5002388;28;20143;-79
2023/03/14 04:23:30;;;;;;;;;;;9.30;99.90;;;;;;5000249;28;21228;-80
2023/03/14 04:25:56;;;;;;;11.70;1.63;;;9.20;99.90;;;;;;4999283;28;19940;-79
2023/03/14 04:28:24;;;;;;;9.57;1.55;;;9.30;99.90;;;;;;4991717;28;20539;-79
2023/03/14 04:30:51;;;;;;;9.80;1.55;;;9.30;99.90;;;;;;4981011;28;20037;-79
2023/03/14 04:33:21;;;;;;;16.00;1.60;;;9.30;99.90;;;;;;4989414;28;20412;-80
2023/03/14 04:35:55;;;;;;;11.20;1.38;;;9.30;99.90;;;;;;5003049;28;20518;-81
2023/03/14 04:38:22;;;;;;;6.05;1.35;;;9.30;99.90;;;;;;5009629;28;20075;-79
2023/03/14 04:40:49;;;;;;;7.72;1.30;;;9.30;99.90;;;;;;4996458;28;20044;-81
2023/03/14 04:43:18;;;;;;;8.75;1.52;;;9.30;99.90;;;;;;4996025;28;20828;-80
2023/03/14 04:45:49;;;;;;;11.45;1.38;;;9.30;99.90;;;;;;4989191;28;20045;-81
2023/03/14 04:48:16;;;;;;;10.50;1.27;;;9.30;99.90;;;;;;4994332;28;20049;-81
2023/03/14 04:50:43;;;;;;;12.38;1.65;;;9.30;99.90;;;;;;4981016;28;20054;-82
2023/03/14 04:53:09;;;;;;;12.80;1.95;;;9.30;99.90;;;;;;4998527;28;20045;-81
2023/03/14 04:55:38;;;;;;;8.48;1.45;;;9.40;99.90;;;;;;4998000;28;20673;-80
2023/03/14 04:58:05;;;;;;;8.27;1.25;;;9.40;99.90;;;;;;4980310;28;20060;-79
2023/03/14 05:00:31;;;;;;;9.00;1.13;;;9.40;99.90;;;;;;4984533;28;20045;-80
2023/03/14 05:02:58;;;;;;;10.32;1.27;;;9.40;99.90;;;;;;5017243;28;20052;-80
2023/03/14 05:05:37;;;;;;;10.52;1.17;;;9.40;99.90;;;;;;4998812;28;20037;-80
2023/03/14 05:08:07;;;;;;;5.80;0.90;;;9.40;99.90;;;;;;5010956;28;20053;-80
2023/03/14 05:10:57;;;;;;;13.05;1.10;;;9.50;99.90;;;;;;4997975;28;20040;-81
2023/03/14 05:13:42;;;;;;;7.20;0.93;;;9.50;99.90;;;;;;5006582;28;20052;-78
2023/03/14 05:16:31;;;;;;;12.98;1.00;;;9.50;99.90;;;;;;4972139;28;20697;-79
2023/03/14 05:19:09;;;;;;;7.78;0.80;;;9.50;99.90;;;;;;4959764;28;20333;-78
2023/03/14 05:21:59;;;;;;;7.20;1.00;;;9.40;99.90;;;;;;4978132;28;20055;-80
2023/03/14 05:24:56;;;;;;;8.80;0.80;;;9.40;99.90;;;;;;4998941;28;20068;-79
2023/03/14 05:27:41;;;;;;;4.68;0.93;;;9.40;99.90;;;;;;5003833;28;20503;-79
2023/03/14 05:30:32;;;;;;;6.13;0.90;;;9.40;99.90;;;;;;4979574;28;20036;-79
2023/03/14 05:33:21;;;;;;;6.90;0.80;;;9.40;99.90;;;;;;4990261;28;20037;-80
2023/03/14 05:36:16;;;;;;;6.38;0.50;;;9.40;99.90;;;;;;4970318;28;20040;-81
2023/03/14 05:39:01;;;;;;;6.97;0.77;;;9.40;99.90;;;;;;4994075;28;20060;-79
2023/03/14 05:41:45;;;;;;;5.72;0.70;;;9.40;99.90;;;;;;5019898;28;20041;-80
2023/03/14 05:44:22;;;;;;;8.52;0.70;;;9.40;99.90;;;;;;4998338;28;20040;-80
2023/03/14 05:46:54;;;;;;;5.75;0.60;;;9.40;99.90;;;;;;4997379;28;20502;-80
2023/03/14 05:49:38;;;;;;;5.35;0.50;;;9.40;99.90;;;;;;4973110;28;20178;-79
2023/03/14 05:52:27;;;;;;;6.60;0.60;;;9.40;99.90;;;;;;4987234;28;20060;-79
2023/03/14 05:55:11;;;;;;;4.78;0.50;;;9.50;99.90;;;;;;5000929;28;23326;-78
2023/03/14 05:57:56;;;;;;;8.35;0.65;;;9.50;99.90;;;;;;5010546;28;20068;-80
2023/03/14 06:00:34;;;;;;;4.82;0.85;;;9.40;99.90;;;;;;4992764;28;20586;-79
2023/03/14 06:03:18;;;;;;;5.53;0.60;;;9.40;99.90;;;;;;4997663;28;20037;-78
2023/03/14 06:05:51;;;;;;;9.98;0.70;;;9.40;99.90;;;;;;4986721;28;20040;-79
2023/03/14 06:08:18;;;;;;;4.65;0.93;;;9.40;99.90;;;;;;4979858;28;20140;-83
2023/03/14 06:10:46;;;;;;;7.18;1.15;;;9.40;99.90;;;;;;4979600;28;20039;-83
2023/03/14 06:13:15;;;;;;;5.57;1.45;;;9.40;99.90;;;;;;4996975;28;20070;-82
2023/03/14 06:15:42;;;;;;;6.10;1.33;;;9.40;99.90;;;;;;4981734;28;20041;-80
2023/03/14 06:18:09;;;;;;;4.35;0.90;;;9.40;99.90;;;;;;4977942;28;20064;-82
2023/03/14 06:20:38;;;;;;;5.03;1.13;;;9.40;99.90;;;;;;5001306;28;20060;-77
2023/03/14 06:23:06;;;;;;;5.13;0.80;;;9.40;99.90;;;;;;5004389;28;20045;-80
2023/03/14 06:25:33;;;;;;;4.00;0.80;;;9.40;99.90;;;;;;5002276;28;20048;-80
2023/03/14 06:28:00;;;;;;;3.95;1.15;;;9.40;99.90;;;;;;4984695;28;20044;-78
2023/03/14 06:30:27;;;;;;;4.63;1.05;;;9.40;99.90;;;;;;4996792;28;20388;-80
2023/03/14 06:32:55;;;;;;;5.82;1.17;;;9.40;99.90;;;;;;5004087;28;20485;-79
2023/03/14 06:35:23;;;;;;;7.55;1.45;;;9.40;99.90;;;;;;4975604;28;20049;-82
2023/03/14 06:37:49;;;;;;;6.68;1.45;;;9.40;99.90;;;;;;5001374;28;20045;-81
2023/03/14 06:40:17;;;;;;;4.30;1.67;;;9.40;99.90;;;;;;4960370;28;20041;-80
2023/03/14 06:42:57;;;;;;;3.05;1.00;;;9.50;99.90;;;;;;5004099;28;20053;-80
2023/03/14 06:45:26;;;;;;;6.43;1.50;;;9.50;99.90;;;;;;5001955;28;20072;-82
2023/03/14 06:47:53;;;;;;;10.90;3.63;;;9.50;99.90;;;;;;5004049;28;20040;-80
2023/03/14 06:50:27;;;;;;;6.63;2.65;;;9.50;99.90;;;;;;4984901;28;20037;-81
2023/03/14 06:53:12;;;;;;;7.15;3.22;;;9.50;99.90;;;;;;5018470;28;20049;-81
2023/03/14 06:55:42;;;;;;;5.35;2.10;;;9.50;99.90;;;;;;4997966;28;20049;-82
2023/03/14 06:58:09;;;;;;;4.97;2.20;;;9.60;99.90;;;;;;4978772;28;20053;-81
2023/03/14 07:00:41;;;;;;;5.03;2.25;;;9.60;99.90;;;;;;4972627;28;20040;-79
2023/03/14 07:03:10;;;;;;;8.27;2.88;;;9.60;99.90;;;;;;5003578;28;20681;-80
2023/03/14 07:05:40;;;;;;;6.85;2.05;;;9.70;99.90;;;;;;5000007;28;20056;-82
2023/03/14 07:08:08;;;;;;;4.90;1.95;;;9.70;99.90;;;;;;4996988;28;20044;-79
2023/03/14 07:10:35;;;;;;;6.68;2.95;;;9.70;99.90;;;;;;4994940;28;20048;-81
2023/03/14 07:13:01;;;;;;;9.25;2.90;;;9.80;99.90;;;;;;5002006;28;20052;-80
2023/03/14 07:15:31;;;;;;;8.77;4.35;;;9.80;99.90;;;;;;4971509;28;20037;-81
2023/03/14 07:18:04;;;;;;;6.43;2.77;;;9.90;99.90;;;;;;4984420;28;20084;-82
2023/03/14 07:20:32;;;;;;;8.25;3.38;;;9.90;99.90;;;;;;4996440;28;20373;-82
2023/03/14 07:22:59;;;;;;;9.57;3.03;;;9.90;99.90;;;;;;4969202;28;20042;-80
2023/03/14 07:25:36;;;;;;;8.52;2.90;;;9.90;99.90;;;;;;4986963;28;20037;-78
2023/03/14 07:28:03;;;;;;;7.63;4.07;;;9.90;99.90;;;;;;4999752;28;20132;-80
2023/03/14 07:30:30;;;;;;;9.38;3.60;;;9.80;99.90;;;;;;4985916;28;20041;-83
2023/03/14 07:32:59;;;;;;;6.30;3.85;;;9.80;99.90;;;;;;4974138;28;20040;-80
2023/03/14 07:35:25;;;;;;;5.20;2.42;;;9.80;99.90;;;;;;4986315;28;20048;-81
2023/03/14 07:37:52;;;;;;;5.90;2.50;;;9.70;99.90;;;;;;4979642;28;20025;-81
2023/03/14 07:40:25;;;;;;;;;;;9.60;99.90;;;;;;4980450;28;20091;-80
2023/03/14 07:42:54;;;;;;;5.75;2.33;;;9.50;99.90;;;;;;5006481;28;19925;-80
2023/03/14 07:45:28;;;;;;;3.83;2.03;;;9.50;99.90;;;;;;5003963;28;20053;-84
2023/03/14 07:47:57;;;;;;;3.95;1.27;;;9.40;99.90;;;;;;4999617;28;20041;-83
2023/03/14 07:50:27;;;;;;;1.67;0.60;;;9.20;99.90;;;;;;4999137;28;20045;-83
2023/03/14 07:52:54;;;;;;;3.97;0.52;;;9.00;99.90;;;;;;4985952;28;20040;-81
2023/03/14 07:55:21;;;;;;;1.42;0.63;;;8.80;99.90;;;;;;5003770;28;20041;-83
2023/03/14 07:57:47;;;;;;;2.75;0.50;;;8.70;99.90;;;;;;5005397;28;20598;-85
2023/03/14 08:00:14;;;;;;;4.05;0.60;;;8.60;99.90;;;;;;4996082;28;20053;-82
2023/03/14 08:02:40;;;;;;;1.55;0.40;;;8.50;99.90;;;;;;5001465;28;20526;-83
2023/03/14 08:05:07;;;;;;;2.55;0.50;;;8.40;99.90;;;;;;4984268;28;20044;-83
2023/03/14 08:07:33;;;;;;;2.70;0.70;;;8.30;99.90;;;;;;4966593;28;20032;-83
2023/03/14 08:10:00;;;;;;;1.83;0.60;;;8.30;99.90;;;;;;4997112;28;20045;-83
2023/03/14 08:12:26;;;;;;;1.55;0.80;;;8.30;99.90;;;;;;5006059;28;20032;-83
2023/03/14 08:14:53;;;;;;;2.17;0.80;;;8.20;99.90;;;;;;5017987;28;20052;-83
2023/03/14 08:17:19;;;;;;;3.00;0.60;;;8.20;99.90;;;;;;4999737;28;20044;-82
2023/03/14 08:19:45;;;;;;;3.15;0.50;;;8.20;99.90;;;;;;5010869;28;20385;-82
2023/03/14 08:22:12;;;;;;;2.92;0.47;;;8.20;99.90;;;;;;4986409;28;20056;-82
2023/03/14 08:24:38;;;;;;;2.05;0.60;;;8.10;99.90;;;;;;5005487;28;20040;-82
2023/03/14 08:27:04;;;;;;;4.32;0.60;;;8.10;99.90;;;;;;5001837;28;20056;-83
2023/03/14 08:29:31;;;;;;;2.45;0.60;;;8.10;99.90;;;;;;5008746;28;20041;-82
2023/03/14 08:31:57;;;;;;;1.00;0.50;;;8.20;99.90;;;;;;4999716;28;20045;-82
2023/03/14 08:34:23;;;;;;;4.38;0.80;;;8.20;99.90;;;;;;4999584;28;20040;-82
2023/03/14 08:36:50;;;;;;;2.83;0.90;;;8.20;99.90;;;;;;5006568;28;20055;-81
2023/03/14 08:39:16;;;;;;;2.03;0.82;;;8.30;99.90;;;;;;5013105;28;20048;-82
2023/03/14 08:41:44;;;;;;;1.95;0.95;;;8.20;99.90;;;;;;5020126;28;20056;-80
2023/03/14 08:44:13;;;;;;;4.03;0.32;;;8.20;99.90;;;;;;4986066;28;20428;-81
2023/03/14 08:46:40;;;;;;;2.75;0.50;;;8.10;99.90;;;;;;4983064;28;20044;-82
2023/03/14 08:49:06;;;;;;;4.97;0.50;;;8.00;99.90;;;;;;4992490;28;20041;-83
2023/03/14 08:51:32;;;;;;;5.35;0.60;;;7.90;99.90;;;;;;4987330;28;20688;-81
2023/03/14 08:53:59;;;;;;;4.90;0.50;;;7.80;99.90;;;;;;4972755;28;20040;-81
2023/03/14 08:56:25;;;;;;;6.90;0.90;;;7.80;99.90;;;;;;4990853;28;20048;-81
2023/03/14 08:58:51;;;;;;;3.85;0.40;;;7.70;99.90;;;;;;4975457;28;20033;-80
2023/03/14 09:01:19;;;;;;;3.10;0.30;;;7.60;99.90;;;;;;5019453;28;20045;-81
2023/03/14 09:03:46;;;;;;;4.72;0.40;;;7.50;99.90;;;;;;4983756;28;20056;-80
2023/03/14 09:06:13;;;;;;;6.40;0.50;;;7.50;99.90;;;;;;4991598;28;20040;-81
2023/03/14 09:08:39;;;;;;;4.57;0.40;;;7.50;99.90;;;;;;4979464;28;20036;-80
2023/03/14 09:11:09;;;;;;;3.13;0.30;;;7.40;99.90;;;;;;5001448;28;20041;-80
2023/03/14 09:13:36;;;;;;;3.03;0.50;;;7.40;99.90;;;;;;4998592;28;20736;-80
2023/03/14 09:16:02;;;;;;;3.13;0.88;;;7.40;99.90;;;;;;4985335;28;20044;-79
2023/03/14 09:18:28;;;;;;;8.13;1.00;;;7.40;99.90;;;;;;4980493;28;20044;-83
2023/03/14 09:20:55;;;;;;;8.15;0.90;;;7.40;99.90;;;;;;5004031;28;20054;-82
2023/03/14 09:23:22;;;;;;;4.72;0.50;;;7.20;99.90;;;;;;5000566;28;20482;-81
2023/03/14 09:25:48;;;;;;;3.38;0.40;;;7.10;99.90;;;;;;4981962;28;20416;-80
2023/03/14 09:28:14;;;;;;;5.40;0.70;;;7.00;99.90;;;;;;5012052;28;20052;-80
2023/03/14 09:30:41;;;;;;;1.65;0.30;;;6.90;99.90;;;;;;4998155;28;20041;-80
2023/03/14 09:33:07;;;;;;;4.53;0.50;;;6.90;99.90;;;;;;5005176;28;20346;-79
2023/03/14 09:35:34;;;;;;;3.13;0.50;;;7.00;99.90;;;;;;5003608;28;20384;-79
2023/03/14 09:38:00;;;;;;;2.92;0.20;;;7.00;99.90;;;;;;4983882;28;20037;-80
2023/03/14 09:40:33;;;;;;;2.00;0.20;;;7.20;99.90;;;;;;5011667;28;20053;-80
2023/03/14 09:43:00;;;;;;;2.53;0.20;;;7.50;99.90;;;;;;5017337;28;20056;-83
2023/03/14 09:45:31;;;;;;;3.83;0.45;;;7.70;99.90;;;;;;4983445;28;20064;-83
2023/03/14 09:47:58;;;;;;;5.35;0.30;;;7.80;99.90;;;;;;5016249;28;20379;-81
2023/03/14 09:50:26;;;;;;;3.10;0.63;;;7.80;99.90;;;;;;4965340;28;20041;-80
2023/03/14 09:52:59;;;;;;;2.15;0.20;;;7.80;99.90;;;;;;4982941;28;20506;-81
2023/03/14 09:55:25;;;;;;;5.45;0.38;;;7.80;99.90;;;;;;4988282;28;20075;-82
2023/03/14 09:57:57;;;;;;;4.35;0.40;;;7.90;99.90;;;;;;4982982;28;20604;-82
2023/03/14 10:00:28;;;;;;;6.55;0.80;;;8.00;99.90;;;;;;4984413;28;20051;-81
2023/03/14 10:03:13;;;;;;;6.97;0.70;;;7.90;99.90;;;;;;4992602;28;20045;-80
2023/03/14 10:05:41;;;;;;;8.07;0.93;;;7.90;99.90;;;;;;5021373;28;20044;-83
2023/03/14 10:08:12;;;;;;;5.28;0.40;;;7.90;99.90;;;;;;4966458;28;20462;-81
2023/03/14 10:10:39;;;;;;;10.18;1.23;;;7.90;99.90;;;;;;5000506;28;20068;-84
2023/03/14 10:13:27;;;;;;;11.73;0.88;;;8.00;99.90;;;;;;5017525;28;20045;-82
2023/03/14 10:15:58;;;;;;;9.40;0.63;;;8.10;99.90;;;;;;4989118;28;20044;-80
2023/03/14 10:18:25;;;;;;;12.38;0.90;;;8.20;99.90;;;;;;5002257;28;20056;-84
2023/03/14 10:21:21;;;;;;;12.73;1.45;;;8.20;99.90;;;;;;5000490;28;20056;-84
2023/03/14 10:23:48;;;;;;;13.15;1.02;;;8.20;99.90;;;;;;5002508;28;20029;-85
2023/03/14 10:26:16;;;;;;;8.23;0.52;;;8.10;99.90;;;;;;4969178;28;20453;-82
2023/03/14 10:28:46;;;;;;;8.27;0.60;;;8.10;99.90;;;;;;4993275;28;20045;-83
2023/03/14 10:31:14;;;;;;;9.95;0.80;;;8.10;99.90;;;;;;4993220;28;20033;-84
2023/03/14 10:33:41;;;;;;;14.63;1.30;;;8.20;99.90;;;;;;4986193;28;20044;-84
2023/03/14 10:36:28;;;;;;;13.65;1.20;;;8.20;99.90;;;;;;5020230;28;20472;-82
2023/03/14 10:39:16;;;;;;;14.23;1.13;;;8.20;99.90;;;;;;5011342;28;20048;-84
2023/03/14 10:41:52;;;;;;;10.38;1.80;;;8.20;99.90;;;;;;4998512;28;20053;-82
2023/03/14 10:44:22;;;;;;;17.50;1.73;;;8.20;99.90;;;;;;5003515;28;20042;-85
2023/03/14 10:47:05;;;;;;;15.50;1.85;;;8.20;99.90;;;;;;5005756;28;20060;-82
2023/03/14 10:49:36;;;;;;;21.10;1.88;;;8.30;99.90;;;;;;4988801;28;20057;-79
2023/03/14 10:52:26;;;;;;;17.63;2.67;;;8.30;99.90;;;;;;4982818;28;20042;-81
2023/03/14 10:55:02;;;;;;;17.95;1.60;;;8.40;99.90;;;;;;4981561;28;20029;-84
2023/03/14 10:57:28;;;;;;;29.73;9.93;;;8.30;99.90;;;;;;4986148;28;20037;-80
2023/03/14 10:59:59;;;;;;;15.45;2.53;;;8.20;99.90;;;;;;4994809;28;20060;-80
2023/03/14 11:02:37;;;;;;;11.05;1.63;;;8.10;99.90;;;;;;4979561;28;20045;-79
2023/03/14 11:05:15;;;;;;;10.38;1.08;;;8.00;99.90;;;;;;4991740;28;20513;-82
2023/03/14 11:07:44;;;;;;;13.95;1.65;;;7.80;99.90;;;;;;4995258;28;20041;-83
2023/03/14 11:10:19;;;;;;;17.70;2.10;;;7.70;99.90;;;;;;4992633;28;20045;-83
2023/03/14 11:13:06;;;;;;;18.63;1.70;;;7.60;99.90;;;;;;4988689;28;20048;-80
2023/03/14 11:15:44;;;;;;;20.63;1.45;;;7.70;99.90;;;;;;5001620;28;20046;-83
2023/03/14 11:18:36;;;;;;;21.65;2.95;;;8.00;99.90;;;;;;4998584;28;20044;-79
2023/03/14 11:21:04;;;;;;;20.08;2.40;;;8.50;99.90;;;;;;4997105;28;20033;-77
2023/03/14 11:23:45;;;;;;;16.77;1.63;;;8.90;99.90;;;;;;4980899;28;20849;-81
2023/03/14 11:26:18;;;;;;;15.02;1.75;;;9.00;99.90;;;;;;5003142;28;20416;-79
2023/03/14 11:28:58;;;;;;;12.98;1.50;;;9.00;99.90;;;;;;4991697;28;20052;-83
2023/03/14 11:31:31;;;;;;;12.13;1.50;;;8.80;99.90;;;;;;4982866;28;20037;-83
2023/03/14 11:34:11;;;;;;;19.05;2.65;;;8.80;99.90;;;;;;4997361;28;20483;-79
2023/03/14 11:36:55;;;;;;;15.07;1.63;;;8.60;99.90;;;;;;4997641;28;20048;-76
2023/03/14 11:39:25;;;;;;;17.38;1.73;;;8.40;99.90;;;;;;4993266;28;20057;-77
2023/03/14 11:41:57;;;;;;;23.13;3.28;;;8.40;99.90;;;;;;5003042;28;20033;-78
2023/03/14 11:44:32;;;;;;;28.83;3.92;;;8.50;99.90;;;;;;4998763;28;20030;-79
2023/03/14 11:47:14;;;;;;;31.30;5.78;;;8.60;99.90;;;;;;4996905;28;20049;-77
2023/03/14 11:49:50;;;;;;;22.45;4.47;;;8.70;99.90;;;;;;4970885;28;20506;-80
2023/03/14 11:52:20;;;;;;;23.17;5.20;;;8.70;99.90;;;;;;4997202;28;20412;-76
2023/03/14 11:55:10;;;;;;;20.23;4.50;;;8.70;99.90;;;;;;5001359;28;20045;-80
2023/03/14 11:57:39;;;;;;;24.83;5.03;;;8.90;99.90;;;;;;4996760;28;20061;-78
2023/03/14 12:00:21;;;;;;;20.17;4.07;;;8.90;99.90;;;;;;4988012;28;20609;-76
2023/03/14 12:03:25;;;;;;;16.42;1.65;;;9.40;99.90;;;;;;5013820;28;21210;-77
2023/03/14 12:06:22;;;;;;;19.70;2.85;;;10.20;99.90;;;;;;4974373;28;20045;-78
2023/03/14 12:08:48;;;;;;;11.18;1.80;;;11.10;99.90;;;;;;4989990;28;20049;-80
2023/03/14 12:11:52;;;;;;;11.95;1.55;;;11.80;99.90;;;;;;4998588;28;20044;-77
2023/03/14 12:14:23;;;;;;;12.35;1.92;;;11.80;99.90;;;;;;4996762;28;20385;-81
2023/03/14 12:16:56;;;;;;;15.90;1.92;;;11.80;99.90;;;;;;4996860;28;22575;-77
2023/03/14 12:19:23;;;;;;;10.82;1.25;;;11.50;99.90;;;;;;4969648;28;20088;-80
2023/03/14 12:21:53;;;;;;;14.10;1.83;;;11.10;99.90;;;;;;4999939;28;20045;-80
2023/03/14 12:24:29;;;;;;;9.60;1.00;;;11.10;99.90;;;;;;5016198;28;20072;-81
2023/03/14 12:26:58;;;;;;;8.40;1.35;;;11.60;99.90;;;;;;4990305;28;20037;-80
2023/03/14 12:29:25;;;;;;;8.20;0.80;;;12.60;99.90;;;;;;4986568;28;20092;-80
2023/03/14 12:32:00;;;;;;;12.77;1.40;;;13.50;99.90;;;;;;4993738;28;20045;-78
2023/03/14 12:34:34;;;;;;;7.90;1.35;;;14.30;99.90;;;;;;4998716;28;20045;-79
2023/03/14 12:37:16;;;;;;;8.60;0.80;;;14.90;99.90;;;;;;5001216;28;20037;-79
2023/03/14 12:40:10;;;;;;;6.63;0.80;;;15.20;99.90;;;;;;4989021;28;20052;-78
2023/03/14 12:42:43;;;;;;;8.00;1.08;;;15.30;98.90;;;;;;4979520;28;20052;-80
2023/03/14 12:45:23;;;;;;;7.63;0.80;;;15.40;96.60;;;;;;4996310;28;20054;-81
2023/03/14 12:48:27;;;;;;;8.02;0.80;;;15.50;95.20;;;;;;4996676;28;20048;-79
2023/03/14 12:50:56;;;;;;;4.45;0.70;;;15.70;94.40;;;;;;4957311;28;20033;-78
2023/03/14 12:53:28;;;;;;;6.45;0.80;;;16.00;93.80;;;;;;4995077;28;20522;-78
2023/03/14 12:56:09;;;;;;;8.65;1.15;;;16.30;92.90;;;;;;4993533;28;20508;-79
2023/03/14 12:58:42;;;;;;;7.72;1.17;;;16.70;93.10;;;;;;4987933;28;20038;-79
2023/03/14 13:01:17;;;;;;;7.30;0.93;;;17.10;92.10;;;;;;4974906;28;20053;-77
2023/03/14 13:03:46;;;;;;;6.88;0.95;;;17.40;89.60;;;;;;4999261;28;20037;-77
2023/03/14 13:06:12;;;;;;;7.40;1.10;;;17.40;85.00;;;;;;4998432;28;20038;-79
2023/03/14 13:08:43;;;;;;;7.65;0.90;;;17.20;84.50;;;;;;4978851;28;20373;-81
2023/03/14 13:11:18;;;;;;;11.50;1.20;;;17.00;83.70;;;;;;4994074;28;20382;-78
2023/03/14 13:13:58;;;;;;;5.72;0.70;;;17.10;85.40;;;;;;4986459;28;20042;-78
2023/03/14 13:16:25;;;;;;;6.00;0.82;;;17.50;83.60;;;;;;4998576;28;20041;-77